Time;durP1;ratioP1;P1;durP2;ratioP2;P2;SDS_P1;SDS_P2;PMS_P1;PMS_P2;Temp;Humidity;BMP_temperature;BMP_pressure;BME280_temperature;BME280_humidity;BME280_pressure;Samples;Min_cycle;Max_cycle;Signal;HPM_P1;HPM_P2
2023/08/06 00:01:59;;;;;;;5.67;5.17;;;16.10;99.90;;;16.23;88.85;97191.78;4949499;29;20547;-78
2023/08/06 00:04:26;;;;;;;5.80;4.90;;;16.10;98.90;;;16.17;88.35;97207.28;4949237;28;20465;-79
2023/08/06 00:06:53;;;;;;;3.97;3.67;;;16.00;98.10;;;15.53;89.78;97146.72;4941224;29;20470;-80
2023/08/06 00:09:20;;;;;;;4.90;4.50;;;15.90;98.80;;;15.75;91.12;97176.44;4949620;28;20463;-75
2023/08/06 00:11:48;;;;;;;4.83;4.43;;;15.90;99.80;;;15.80;90.71;97208.31;4957282;28;20956;-78
2023/08/06 00:14:17;;;;;;;4.60;4.20;;;15.90;98.60;;;15.85;91.40;97200.97;4951639;28;20466;-77
2023/08/06 00:16:45;;;;;;;4.90;4.50;;;15.80;99.60;;;15.80;90.29;97205.59;4954739;29;20454;-80
2023/08/06 00:19:14;;;;;;;4.90;4.50;;;15.80;99.50;;;15.64;90.88;97181.06;4951613;29;20476;-76
2023/08/06 00:21:41;;;;;;;5.17;4.77;;;15.80;98.80;;;15.25;92.30;97140.66;4956014;28;20452;-78
2023/08/06 00:24:08;;;;;;;5.00;4.50;;;15.70;99.90;;;15.34;92.88;97162.72;4951853;29;20465;-77
2023/08/06 00:26:36;;;;;;;4.90;4.50;;;15.60;99.90;;;15.21;93.51;97172.22;4941748;29;20534;-76
2023/08/06 00:29:03;;;;;;;5.67;5.17;;;15.40;99.90;;;15.20;94.40;97165.94;4963670;28;20951;-78
2023/08/06 00:31:30;;;;;;;5.43;4.37;;;15.30;99.90;;;15.12;94.62;97182.78;4938259;28;20455;-77
2023/08/06 00:33:58;;;;;;;4.80;4.33;;;15.20;99.90;;;14.99;94.82;97160.44;4943365;29;20468;-80
2023/08/06 00:36:28;;;;;;;5.13;4.67;;;15.10;99.90;;;14.80;95.87;97145.66;4937394;29;20459;-77
2023/08/06 00:38:55;;;;;;;6.03;5.43;;;15.00;99.90;;;14.59;96.04;97118.31;4951796;29;20487;-78
2023/08/06 00:41:23;;;;;;;5.20;3.87;;;14.90;99.90;;;14.80;96.18;97141.03;4962031;28;20542;-79
2023/08/06 00:43:50;;;;;;;4.73;4.33;;;14.90;99.90;;;14.74;96.68;97120.34;4950965;29;20468;-80
2023/08/06 00:46:18;;;;;;;5.07;4.57;;;14.90;99.90;;;14.66;98.31;97127.06;4946044;28;20462;-77
2023/08/06 00:48:45;;;;;;;5.37;4.93;;;14.70;99.90;;;14.59;98.60;97099.28;4942156;28;20459;-76
2023/08/06 00:51:13;;;;;;;7.17;5.20;;;14.80;99.90;;;14.50;98.50;97109.03;4924737;29;20466;-76
2023/08/06 00:53:41;;;;;;;5.50;5.00;;;14.70;99.90;;;14.70;99.50;97141.75;4968260;28;21122;-76
2023/08/06 00:56:10;;;;;;;5.73;5.23;;;14.60;99.90;;;14.85;98.89;97142.94;4949701;28;20853;-78
2023/08/06 00:58:38;;;;;;;5.13;4.73;;;14.70;99.90;;;13.81;99.87;96987.47;4952958;29;20488;-76
2023/08/06 01:01:06;;;;;;;6.13;5.60;;;14.70;99.90;;;14.26;100.00;97060.53;4950634;28;20464;-77
2023/08/06 01:03:33;;;;;;;5.73;5.13;;;14.70;99.90;;;14.82;98.94;97138.06;4965621;28;20461;-77
2023/08/06 01:06:01;;;;;;;5.53;4.93;;;14.70;99.90;;;13.98;100.00;96995.47;4955446;28;20456;-77
2023/08/06 01:08:43;;;;;;;5.87;5.37;;;14.80;99.90;;;14.85;100.00;97132.06;4949217;29;20443;-79
2023/08/06 01:11:44;;;;;;;5.97;5.47;;;14.80;99.90;;;14.59;99.54;97150.94;4952768;28;20551;-78
2023/08/06 01:14:31;;;;;;;6.07;5.57;;;14.70;99.90;;;14.39;99.47;97127.16;4944859;29;20458;-78
2023/08/06 01:17:00;;;;;;;5.03;4.53;;;14.60;99.90;;;14.20;99.15;97094.19;4946320;28;20457;-77
2023/08/06 01:19:27;;;;;;;7.00;5.33;;;14.60;99.90;;;14.62;100.00;97149.59;4949682;29;20476;-80
2023/08/06 01:21:57;;;;;;;6.37;5.47;;;14.60;99.90;;;14.54;100.00;97131.88;4940716;28;20474;-77
2023/08/06 01:24:24;;;;;;;5.47;4.97;;;14.60;99.90;;;14.05;99.17;97044.13;4941056;29;20543;-78
2023/08/06 01:27:00;;;;;;;6.50;5.30;;;14.60;99.90;;;14.87;100.00;97151.66;4954483;28;20453;-83
2023/08/06 01:29:36;;;;;;;5.37;4.93;;;14.70;99.90;;;14.69;98.40;97126.53;4947627;29;20534;-79
2023/08/06 01:32:06;;;;;;;6.07;5.57;;;14.70;99.90;;;14.47;99.75;97125.84;4944081;29;20451;-78
2023/08/06 01:34:36;;;;;;;6.57;5.20;;;14.60;99.90;;;14.52;98.57;97139.50;4943787;29;20462;-77
2023/08/06 01:37:05;;;;;;;5.50;4.97;;;14.50;99.90;;;14.56;99.56;97125.13;4951868;28;20454;-79
2023/08/06 01:39:34;;;;;;;5.60;5.17;;;14.50;99.90;;;14.55;98.68;97125.38;4968927;28;21254;-77
2023/08/06 01:42:02;;;;;;;5.63;5.10;;;14.50;99.90;;;14.15;98.88;97098.47;4953073;28;20466;-78
2023/08/06 01:44:29;;;;;;;4.80;4.30;;;14.40;99.90;;;14.25;98.17;97107.78;4947201;28;20462;-81
2023/08/06 01:46:57;;;;;;;4.60;4.00;;;14.30;99.90;;;14.01;98.27;97049.25;4952444;29;20457;-77
2023/08/06 01:49:24;;;;;;;4.70;3.53;;;14.40;99.90;;;14.11;97.60;97047.69;4949242;29;20450;-78
2023/08/06 01:51:52;;;;;;;4.40;4.00;;;14.40;99.90;;;14.35;96.80;97097.00;4944735;29;20510;-85
2023/08/06 01:54:22;;;;;;;4.63;4.23;;;14.40;99.90;;;14.13;98.03;97053.69;4944352;28;20466;-78
2023/08/06 01:56:50;;;;;;;4.87;4.47;;;14.40;99.90;;;14.42;97.28;97108.44;4957781;28;21226;-78
2023/08/06 01:59:17;;;;;;;4.60;4.20;;;14.40;99.90;;;14.20;98.21;97095.00;4944834;29;20469;-77
2023/08/06 02:01:45;;;;;;;4.50;4.20;;;14.30;99.90;;;14.24;98.79;97096.09;4948041;29;21414;-78
2023/08/06 02:04:12;;;;;;;4.80;3.70;;;14.30;99.90;;;14.31;98.46;97109.44;4949759;28;20486;-81
2023/08/06 02:06:41;;;;;;;4.10;3.80;;;14.30;99.90;;;14.41;99.30;97112.25;4927131;29;20489;-79
2023/08/06 02:09:08;;;;;;;4.57;3.83;;;14.40;99.90;;;14.42;97.48;97113.06;4944560;29;20500;-77
2023/08/06 02:11:37;;;;;;;4.03;3.70;;;14.40;99.90;;;13.69;98.59;96989.56;4940473;29;20808;-78
2023/08/06 02:14:04;;;;;;;3.10;2.90;;;14.40;99.90;;;14.23;97.69;97078.16;4950722;28;20596;-82
2023/08/06 02:16:32;;;;;;;3.90;3.60;;;14.40;99.90;;;14.37;98.36;97111.13;4949002;28;20465;-79
2023/08/06 02:18:59;;;;;;;3.67;3.37;;;14.40;99.90;;;14.23;97.56;97088.22;4947073;28;20982;-80
2023/08/06 02:21:27;;;;;;;4.83;4.37;;;14.40;99.90;;;14.33;98.27;97104.59;4948485;28;20486;-78
2023/08/06 02:23:54;;;;;;;3.43;3.13;;;14.30;99.90;;;14.37;96.54;97104.88;4951734;29;20946;-81
2023/08/06 02:26:21;;;;;;;3.73;3.43;;;14.30;99.90;;;14.27;96.90;97095.59;4945101;29;20460;-78
2023/08/06 02:28:50;;;;;;;4.50;3.20;;;14.20;99.90;;;13.57;97.15;96971.59;4954441;28;20936;-77
2023/08/06 02:31:18;;;;;;;3.83;3.53;;;14.20;99.90;;;14.53;96.29;97094.91;4953327;28;20451;-78
2023/08/06 02:33:45;;;;;;;4.07;3.10;;;14.30;99.90;;;14.39;93.51;97092.66;4948545;28;20464;-79
2023/08/06 02:36:12;;;;;;;3.30;3.07;;;14.30;99.90;;;14.39;94.91;97091.84;4944259;29;20529;-82
2023/08/06 02:38:40;;;;;;;4.40;3.30;;;14.20;99.90;;;14.22;94.15;97071.09;4950701;29;20475;-80
2023/08/06 02:41:07;;;;;;;3.40;3.10;;;14.20;99.90;;;13.48;93.05;96980.44;4948269;29;20458;-81
2023/08/06 02:43:36;;;;;;;3.30;2.77;;;14.20;99.90;;;14.04;93.85;97075.06;4948334;29;20496;-77
2023/08/06 02:46:04;;;;;;;2.90;2.70;;;14.20;99.90;;;14.23;95.43;97075.44;4966295;28;20484;-80
2023/08/06 02:48:33;;;;;;;4.37;3.03;;;14.20;99.90;;;14.14;94.80;97056.09;4946346;28;20463;-78
2023/08/06 02:51:01;;;;;;;3.80;3.40;;;14.30;99.90;;;14.13;95.51;97030.03;4943216;29;20454;-79
2023/08/06 02:53:28;;;;;;;3.53;3.20;;;14.20;99.90;;;14.16;95.28;97064.81;4948563;29;20453;-80
2023/08/06 02:55:56;;;;;;;3.27;2.90;;;14.20;99.90;;;13.72;95.03;96975.47;4947034;28;20473;-77
2023/08/06 02:58:24;;;;;;;4.40;3.00;;;14.10;99.90;;;14.03;95.49;97021.84;4925332;29;20481;-79
2023/08/06 03:01:02;;;;;;;3.50;3.20;;;14.20;99.90;;;14.24;97.38;97043.69;4944125;29;20489;-76
2023/08/06 03:03:32;;;;;;;3.33;3.03;;;14.20;99.90;;;14.40;97.47;97047.28;4958280;28;20553;-79
2023/08/06 03:05:59;;;;;;;3.30;3.00;;;14.40;99.90;;;14.61;96.63;97069.94;4968077;28;20461;-78
2023/08/06 03:08:27;;;;;;;3.33;3.03;;;14.50;99.90;;;14.62;96.86;97068.84;4952267;28;21006;-80
2023/08/06 03:10:54;;;;;;;4.90;2.80;;;14.50;99.90;;;14.63;97.47;97064.25;4954944;29;20463;-79
2023/08/06 03:13:21;;;;;;;5.73;3.47;;;14.50;99.90;;;14.40;98.59;97020.94;4954687;28;20862;-79
2023/08/06 03:15:58;;;;;;;4.80;3.17;;;14.60;99.90;;;14.43;96.61;96998.66;4948984;29;20538;-76
2023/08/06 03:18:26;;;;;;;3.30;3.00;;;14.60;99.90;;;14.54;95.92;97007.66;4947316;28;21009;-80
2023/08/06 03:20:55;;;;;;;4.33;3.60;;;14.60;99.90;;;14.51;95.84;97013.63;4948916;28;20478;-78
2023/08/06 03:23:22;;;;;;;3.57;3.30;;;14.60;99.90;;;14.83;96.67;97058.13;4953075;29;20465;-77
2023/08/06 03:25:50;;;;;;;3.60;3.30;;;14.60;99.90;;;14.82;96.02;97051.84;4952256;28;20461;-75
2023/08/06 03:28:17;;;;;;;3.80;3.40;;;14.70;99.90;;;14.63;95.70;97035.16;4947153;29;20474;-75
2023/08/06 03:30:44;;;;;;;4.47;2.73;;;14.60;99.90;;;14.69;94.91;97036.00;4942977;28;20935;-79
2023/08/06 03:33:12;;;;;;;3.40;2.77;;;14.60;99.90;;;14.69;95.40;97039.53;4955302;28;20461;-76
2023/08/06 03:35:39;;;;;;;3.60;3.30;;;14.60;99.90;;;14.41;97.58;96981.00;4961684;29;20481;-78
2023/08/06 03:38:08;;;;;;;5.57;3.70;;;14.60;99.90;;;15.17;98.32;97035.09;4956211;29;20456;-78
2023/08/06 03:40:36;;;;;;;4.17;3.40;;;14.90;99.90;;;15.28;97.27;97026.66;4949054;29;20444;-76
2023/08/06 03:43:04;;;;;;;4.33;3.93;;;15.00;99.90;;;15.02;96.81;97021.19;4954429;29;20459;-77
2023/08/06 03:45:31;;;;;;;5.60;3.77;;;15.00;99.90;;;15.07;97.14;97019.53;4960621;29;20533;-79
2023/08/06 03:47:58;;;;;;;4.50;4.10;;;14.90;99.90;;;14.70;95.87;96973.22;4953055;29;20468;-75
2023/08/06 03:50:26;;;;;;;4.90;4.50;;;14.80;99.90;;;14.47;96.16;96958.19;4951784;28;20538;-81
2023/08/06 03:52:53;;;;;;;6.00;4.77;;;14.60;99.90;;;14.40;96.19;96963.88;4946691;29;20946;-81
2023/08/06 03:55:23;;;;;;;4.87;4.47;;;14.50;99.90;;;14.57;97.06;97025.34;4956563;29;20458;-78
2023/08/06 03:57:50;;;;;;;5.63;5.13;;;14.40;99.90;;;14.43;97.52;97019.59;4948227;29;20987;-78
2023/08/06 04:00:18;;;;;;;4.67;4.27;;;14.30;99.90;;;14.35;97.89;97014.66;4954417;29;20474;-76
2023/08/06 04:02:49;;;;;;;5.30;4.80;;;14.20;99.90;;;13.82;98.12;96931.31;4954479;28;20460;-77
2023/08/06 04:05:16;;;;;;;6.10;4.97;;;14.10;99.90;;;13.97;98.39;96965.84;4940327;28;20465;-78
2023/08/06 04:07:44;;;;;;;5.30;4.73;;;14.00;99.90;;;14.19;100.00;97019.22;4947914;29;20819;-78
2023/08/06 04:10:11;;;;;;;4.93;4.53;;;13.90;99.90;;;13.84;99.77;96956.28;4950405;29;20948;-78
2023/08/06 04:12:40;;;;;;;3.63;3.33;;;14.00;99.90;;;13.91;100.00;96980.50;4947350;28;20466;-75
2023/08/06 04:15:09;;;;;;;3.77;3.47;;;14.00;99.90;;;14.03;100.00;96992.78;4947487;29;20461;-77
2023/08/06 04:17:37;;;;;;;3.97;3.57;;;14.10;99.90;;;14.20;99.79;96988.25;4948684;28;20461;-79
2023/08/06 04:20:06;;;;;;;3.63;3.33;;;14.20;99.90;;;14.32;99.72;97013.28;4948983;29;20567;-77
2023/08/06 04:22:33;;;;;;;4.10;3.70;;;14.20;99.90;;;14.03;99.41;96962.09;4944434;29;20465;-77
2023/08/06 04:25:01;;;;;;;3.53;3.23;;;14.20;99.90;;;14.41;98.97;97022.56;4944029;29;21090;-78
2023/08/06 04:27:29;;;;;;;3.27;3.00;;;14.30;99.90;;;15.40;96.51;97017.44;4960513;28;20455;-82
2023/08/06 04:29:58;;;;;;;4.13;3.23;;;14.90;99.90;;;15.86;91.07;97025.59;4943590;29;20470;-79
2023/08/06 04:32:26;;;;;;;3.37;3.17;;;15.30;99.90;;;15.67;89.43;96959.16;4936190;29;20477;-77
2023/08/06 04:34:53;;;;;;;3.43;3.13;;;15.60;99.90;;;15.86;87.59;96984.72;4940044;28;20549;-78
2023/08/06 04:37:20;;;;;;;4.07;3.37;;;15.80;98.70;;;15.67;87.46;97016.31;4938998;28;20450;-76
2023/08/06 04:39:48;;;;;;;4.13;3.50;;;15.60;96.20;;;14.90;88.53;96936.28;4945666;29;20480;-79
2023/08/06 04:42:15;;;;;;;4.07;3.10;;;15.40;96.40;;;15.71;87.52;97025.59;4942865;29;20498;-77
2023/08/06 04:44:44;;;;;;;3.90;3.60;;;15.50;97.60;;;15.55;88.61;97024.78;4956366;28;20513;-76
2023/08/06 04:47:12;;;;;;;3.37;3.07;;;15.50;97.50;;;15.35;89.49;96982.88;4938128;29;20460;-77
2023/08/06 04:49:40;;;;;;;3.30;3.00;;;15.30;98.40;;;15.40;89.89;97020.16;4942767;28;20475;-78
2023/08/06 04:52:07;;;;;;;3.53;3.23;;;15.30;98.60;;;15.46;87.70;97010.88;4935573;29;20544;-79
2023/08/06 04:54:35;;;;;;;5.33;2.77;;;15.40;97.20;;;15.20;88.74;96953.72;4941902;29;20533;-77
2023/08/06 04:57:02;;;;;;;3.20;3.00;;;15.30;98.70;;;15.35;88.74;96990.19;4943509;29;20972;-77
2023/08/06 04:59:29;;;;;;;3.60;3.30;;;15.40;98.20;;;15.55;86.91;97012.00;4950454;28;20494;-76
2023/08/06 05:01:57;;;;;;;3.40;2.90;;;15.40;97.00;;;15.89;87.95;97023.41;4944301;28;20456;-76
2023/08/06 05:04:26;;;;;;;3.20;3.00;;;15.50;98.00;;;15.68;85.14;97015.22;4939018;28;20460;-77
2023/08/06 05:06:53;;;;;;;5.03;3.70;;;15.50;95.50;;;15.28;86.70;96979.59;4939102;29;20462;-78
2023/08/06 05:09:21;;;;;;;2.80;2.60;;;15.30;96.00;;;14.94;87.34;96920.25;4944238;29;21034;-74
2023/08/06 05:11:48;;;;;;;3.97;3.60;;;15.60;96.00;;;14.84;89.78;96962.66;4943412;29;20464;-80
2023/08/06 05:14:16;;;;;;;6.80;3.80;;;15.30;96.20;;;15.92;90.60;97011.97;4959073;28;20474;-80
2023/08/06 05:16:43;;;;;;;3.90;3.50;;;15.50;99.90;;;15.80;83.27;96928.63;4940909;28;20454;-76
2023/08/06 05:19:11;;;;;;;4.43;3.07;;;16.20;94.00;;;17.85;76.82;97007.97;4943680;28;20482;-75
2023/08/06 05:21:39;;;;;;;2.83;2.63;;;17.60;91.50;;;18.15;76.34;97003.31;4942156;29;20481;-74
2023/08/06 05:24:07;;;;;;;5.90;2.97;;;18.00;90.80;;;17.93;77.29;97012.81;4948544;29;20528;-76
2023/08/06 05:26:34;;;;;;;2.67;2.47;;;17.90;90.60;;;17.81;75.87;96999.53;4954454;29;20468;-76
2023/08/06 05:29:02;;;;;;;3.33;2.87;;;17.70;90.40;;;17.71;77.01;96985.97;4955325;29;20457;-78
2023/08/06 05:31:29;;;;;;;5.00;3.37;;;17.50;90.80;;;17.88;75.94;97009.31;4947624;29;20528;-77
2023/08/06 05:33:58;;;;;;;6.93;2.80;;;17.70;90.50;;;18.43;75.12;97009.03;4942929;29;20466;-78
2023/08/06 05:36:25;;;;;;;4.03;2.93;;;18.00;90.60;;;18.72;72.67;97010.03;4948541;29;20475;-78
2023/08/06 05:38:54;;;;;;;4.00;3.07;;;18.30;89.80;;;18.24;71.71;96978.91;4953180;28;20456;-78
2023/08/06 05:41:21;;;;;;;5.63;2.57;;;18.30;88.30;;;16.98;77.62;97000.13;4942784;29;20474;-78
2023/08/06 05:43:48;;;;;;;3.20;2.90;;;17.40;89.60;;;16.40;79.65;97004.22;4944488;29;20469;-77
2023/08/06 05:46:16;;;;;;;3.53;3.23;;;16.80;90.30;;;15.99;83.21;97004.31;4941992;29;20481;-79
2023/08/06 05:48:43;;;;;;;3.77;3.10;;;16.20;91.90;;;15.64;83.47;96951.53;4951944;29;20480;-78
2023/08/06 05:51:12;;;;;;;4.40;3.50;;;16.10;92.80;;;16.05;83.01;96986.91;4943813;29;20507;-85
2023/08/06 05:53:40;;;;;;;3.37;2.80;;;16.10;93.50;;;16.04;83.41;97009.78;4946024;29;20734;-75
2023/08/06 05:56:08;;;;;;;3.13;2.93;;;16.10;93.20;;;15.54;85.43;96999.47;4947918;29;20463;-77
2023/08/06 05:58:36;;;;;;;2.97;2.77;;;15.80;93.60;;;15.75;84.26;96999.44;4968227;28;20818;-79
2023/08/06 06:01:03;;;;;;;3.70;3.40;;;15.80;93.70;;;16.34;82.09;96999.06;4971702;28;20481;-77
2023/08/06 06:03:33;;;;;;;3.57;3.27;;;16.30;93.30;;;17.63;76.28;96992.88;4947453;29;20453;-76
2023/08/06 06:06:03;;;;;;;3.73;3.43;;;17.60;90.40;;;18.36;72.80;96998.44;4928994;29;20549;-76
2023/08/06 06:08:30;;;;;;;3.10;2.90;;;18.70;87.80;;;19.02;68.53;96999.81;4942800;29;21017;-76
2023/08/06 06:10:58;;;;;;;3.53;3.23;;;19.60;85.10;;;19.04;68.34;96987.47;4943131;28;20464;-76
2023/08/06 06:13:26;;;;;;;3.50;3.20;;;19.80;84.10;;;18.32;70.99;96981.00;4941570;29;20464;-76
2023/08/06 06:15:56;;;;;;;3.10;2.50;;;19.20;84.90;;;18.12;72.99;96993.81;4941217;28;20834;-76
2023/08/06 06:18:23;;;;;;;3.90;3.30;;;18.70;86.20;;;18.03;73.84;96990.06;4932745;28;20544;-77
2023/08/06 06:20:50;;;;;;;4.27;3.00;;;18.20;87.30;;;18.37;71.80;96978.19;4948492;28;20495;-75
2023/08/06 06:23:18;;;;;;;3.83;3.53;;;18.30;87.20;;;19.12;69.43;96986.00;4942201;28;20462;-77
2023/08/06 06:25:48;;;;;;;3.07;2.87;;;18.70;87.00;;;18.64;69.23;96975.94;4940989;29;20493;-75
2023/08/06 06:28:16;;;;;;;4.23;2.60;;;18.70;86.10;;;18.46;70.75;96992.03;4942731;28;20469;-76
2023/08/06 06:30:44;;;;;;;3.70;3.20;;;18.40;86.20;;;18.19;71.82;96981.69;4946099;28;20488;-76
2023/08/06 06:33:12;;;;;;;4.90;3.23;;;18.40;86.90;;;17.86;72.83;96992.41;4949231;29;20455;-77
2023/08/06 06:35:39;;;;;;;3.10;2.90;;;17.90;87.00;;;17.70;73.58;96990.59;4936544;28;20466;-77
2023/08/06 06:38:06;;;;;;;3.27;2.97;;;17.80;87.40;;;17.47;74.13;96988.66;4937107;29;20457;-78
2023/08/06 06:40:34;;;;;;;2.70;2.50;;;17.50;87.70;;;17.10;74.38;96955.34;4950500;28;20491;-78
2023/08/06 06:43:01;;;;;;;3.87;2.70;;;17.30;87.80;;;16.95;75.19;96983.50;4956480;28;20530;-77
2023/08/06 06:45:28;;;;;;;3.73;3.43;;;17.10;88.00;;;17.08;75.50;96982.91;4943807;29;20498;-77
2023/08/06 06:47:56;;;;;;;5.27;4.00;;;17.00;88.60;;;17.04;77.88;96987.31;4948604;29;20458;-75
2023/08/06 06:50:24;;;;;;;3.30;3.10;;;17.00;90.30;;;16.84;77.62;96989.03;4941331;28;20605;-78
2023/08/06 06:52:51;;;;;;;3.40;3.10;;;17.00;90.20;;;16.76;78.28;96997.00;4946482;29;20950;-76
2023/08/06 06:55:18;;;;;;;3.33;3.03;;;16.80;90.50;;;16.30;81.18;96936.13;4939835;29;20451;-78
2023/08/06 06:57:46;;;;;;;3.73;3.43;;;16.60;91.40;;;16.33;82.44;96979.19;4940394;29;20461;-77
2023/08/06 07:00:15;;;;;;;7.87;3.60;;;16.40;92.40;;;16.64;82.50;96991.84;4937749;29;21152;-77
2023/08/06 07:02:42;;;;;;;3.63;3.33;;;16.40;93.20;;;16.63;82.32;96990.22;4951326;28;20980;-77
2023/08/06 07:05:11;;;;;;;3.83;3.53;;;16.60;92.80;;;17.05;79.36;96983.47;4939404;29;20454;-79
2023/08/06 07:07:38;;;;;;;3.23;3.00;;;16.80;91.90;;;17.48;77.44;96976.63;4940210;28;20464;-79
2023/08/06 07:10:07;;;;;;;3.97;3.57;;;17.10;91.50;;;17.12;76.98;96928.59;4932903;29;20548;-78
2023/08/06 07:12:35;;;;;;;3.87;3.57;;;17.30;91.10;;;17.70;76.13;96984.34;4935700;29;20472;-79
2023/08/06 07:15:03;;;;;;;4.93;2.93;;;17.50;90.50;;;17.38;77.76;96980.25;4936227;29;20476;-76
2023/08/06 07:17:30;;;;;;;3.40;3.10;;;17.50;90.70;;;17.48;76.14;96977.41;4941244;28;20468;-80
2023/08/06 07:19:58;;;;;;;3.60;3.30;;;17.40;90.30;;;17.18;78.13;96971.09;4938116;29;20574;-78
2023/08/06 07:22:27;;;;;;;5.70;3.13;;;17.30;90.70;;;16.77;78.34;96976.81;4938298;28;21314;-80
2023/08/06 07:24:55;;;;;;;3.47;3.20;;;17.10;90.40;;;17.07;78.03;96967.63;4937524;29;20556;-76
2023/08/06 07:27:22;;;;;;;3.07;2.77;;;17.10;90.80;;;17.21;76.63;96984.19;4944434;29;20464;-80
2023/08/06 07:29:50;;;;;;;4.10;3.70;;;17.00;90.50;;;17.02;77.99;96977.75;4940951;28;20492;-78
2023/08/06 07:32:17;;;;;;;3.30;2.90;;;17.10;90.70;;;17.08;79.04;96968.47;4944853;28;20459;-82
2023/08/06 07:34:44;;;;;;;3.20;2.90;;;17.10;91.10;;;17.59;74.90;96977.34;4952863;28;20459;-81
2023/08/06 07:37:14;;;;;;;3.63;3.37;;;17.40;90.30;;;18.11;74.21;96983.94;4937644;28;20546;-86
2023/08/06 07:39:43;;;;;;;4.07;3.77;;;17.70;90.40;;;18.04;72.84;96942.50;4948274;28;20481;-84
2023/08/06 07:42:14;;;;;;;4.27;3.00;;;18.10;89.50;;;18.55;73.49;96982.09;4936658;29;20559;-82
2023/08/06 07:44:42;;;;;;;3.10;2.83;;;18.30;89.80;;;18.68;71.19;96977.00;4941261;29;20830;-82
2023/08/06 07:47:09;;;;;;;3.33;2.93;;;18.40;88.30;;;18.11;71.90;96953.88;4938993;29;20963;-84
2023/08/06 07:49:38;;;;;;;2.90;2.70;;;18.30;87.70;;;18.26;72.29;96933.78;4943642;28;20854;-82
2023/08/06 07:52:12;;;;;;;2.47;2.27;;;18.40;88.20;;;17.88;73.84;96939.06;4949832;29;20769;-79
2023/08/06 07:54:40;;;;;;;2.73;2.53;;;18.10;88.50;;;18.19;73.19;96929.78;4955012;29;20521;-82
2023/08/06 07:57:09;;;;;;;2.37;2.17;;;18.40;88.80;;;18.49;71.13;96931.28;4961309;29;20462;-80
2023/08/06 07:59:36;;;;;;;3.00;2.10;;;18.60;87.50;;;18.82;69.41;96949.72;4945810;29;20460;-79
2023/08/06 08:02:04;;;;;;;2.93;1.83;;;18.80;86.60;;;19.55;66.85;96954.91;4939343;29;20941;-82
2023/08/06 08:04:31;;;;;;;2.33;1.90;;;19.30;85.80;;;19.75;65.34;96942.78;4945855;29;20460;-79
2023/08/06 08:06:58;;;;;;;1.80;1.70;;;19.60;84.50;;;19.75;64.42;96926.34;4946488;29;20470;-79
2023/08/06 08:09:26;;;;;;;2.33;2.00;;;19.80;83.70;;;19.71;64.66;96947.25;4942209;29;20500;-79
2023/08/06 08:11:53;;;;;;;2.60;2.10;;;19.80;83.30;;;19.58;64.37;96937.09;4943602;29;20458;-80
2023/08/06 08:14:22;;;;;;;1.70;1.60;;;19.60;83.40;;;19.94;64.53;96939.19;4939652;29;20497;-78
2023/08/06 08:16:49;;;;;;;3.00;1.53;;;19.70;83.50;;;19.81;64.22;96938.88;4947830;29;20456;-79
2023/08/06 08:19:16;;;;;;;2.23;2.03;;;19.80;83.00;;;19.38;67.64;96950.03;4939202;29;20463;-79
2023/08/06 08:21:43;;;;;;;1.83;1.73;;;19.50;84.60;;;18.11;73.57;96931.22;4941504;29;20504;-79
2023/08/06 08:24:11;;;;;;;3.27;1.80;;;18.70;86.90;;;17.75;77.74;96945.25;4940580;29;20470;-78
2023/08/06 08:26:38;;;;;;;1.70;1.60;;;18.10;89.80;;;17.11;75.38;96935.94;4937194;29;20460;-79
2023/08/06 08:29:05;;;;;;;0.90;0.83;;;17.50;88.30;;;16.61;76.60;96956.97;4942422;29;20455;-78
2023/08/06 08:31:38;;;;;;;1.50;1.20;;;17.10;88.40;;;16.50;78.08;96950.75;4955248;28;20459;-79
2023/08/06 08:34:06;;;;;;;1.90;1.03;;;17.00;88.90;;;16.48;76.80;96955.69;4941608;29;20485;-80
2023/08/06 08:36:33;;;;;;;1.47;0.60;;;17.00;88.30;;;16.43;78.44;96957.31;4946946;29;20447;-79
2023/08/06 08:39:00;;;;;;;2.30;0.97;;;16.90;89.70;;;16.40;77.09;96952.44;4939447;28;21002;-82
2023/08/06 08:41:30;;;;;;;1.07;0.80;;;16.90;88.20;;;16.46;76.06;96900.63;4949215;28;20695;-83
2023/08/06 08:44:00;;;;;;;1.00;0.70;;;17.10;88.30;;;17.08;75.99;96961.06;4950079;29;20470;-82
2023/08/06 08:46:30;;;;;;;0.93;0.80;;;17.30;88.40;;;17.06;75.76;96960.56;4966809;28;20492;-80
2023/08/06 08:49:00;;;;;;;0.70;0.60;;;17.50;88.50;;;16.93;75.36;96887.50;4958542;29;20450;-80
2023/08/06 08:51:29;;;;;;;0.50;0.30;;;17.70;88.10;;;17.28;73.16;96959.28;4979678;28;20523;-82
2023/08/06 08:53:57;;;;;;;1.73;0.40;;;17.70;86.40;;;17.38;74.22;96959.22;4989057;28;20453;-81
2023/08/06 08:56:26;;;;;;;0.77;0.40;;;17.80;87.40;;;17.78;70.34;96953.66;4962749;28;20457;-81
2023/08/06 08:58:55;;;;;;;1.40;0.57;;;18.10;85.50;;;17.61;71.50;96874.91;4967956;29;20458;-82
2023/08/06 09:01:23;;;;;;;0.60;0.40;;;18.40;86.20;;;18.14;68.55;96951.72;4946180;28;20486;-78
2023/08/06 09:03:53;;;;;;;0.70;0.60;;;18.50;84.40;;;18.12;70.57;96944.59;4936726;28;20461;-76
2023/08/06 09:06:28;;;;;;;0.73;0.40;;;18.60;85.60;;;18.12;70.26;96969.22;4943918;29;20493;-77
2023/08/06 09:09:08;;;;;;;0.77;0.40;;;18.50;85.00;;;17.40;71.08;96945.28;4945648;29;20455;-78
2023/08/06 09:11:44;;;;;;;0.50;0.50;;;18.20;84.40;;;17.17;75.09;96957.75;4959473;28;20453;-78
2023/08/06 09:14:13;;;;;;;1.17;0.50;;;17.70;86.70;;;17.67;75.42;96954.88;4941511;29;20464;-79
2023/08/06 09:16:42;;;;;;;0.50;0.40;;;18.00;88.00;;;17.83;73.71;96955.53;4946459;28;21032;-80
2023/08/06 09:19:12;;;;;;;0.40;0.30;;;18.20;87.10;;;17.77;73.39;96941.09;4954866;29;20587;-76
2023/08/06 09:21:41;;;;;;;0.40;0.30;;;18.30;87.40;;;17.96;71.27;96941.19;4939846;29;22818;-76
2023/08/06 09:24:10;;;;;;;3.03;0.70;;;18.40;86.00;;;18.56;72.45;96958.28;4940549;29;20469;-74
2023/08/06 09:26:38;;;;;;;0.70;0.30;;;18.70;87.00;;;18.93;68.82;96934.78;4937263;29;20651;-76
2023/08/06 09:29:11;;;;;;;0.50;0.33;;;19.10;85.40;;;18.88;66.66;96958.69;4944306;28;20473;-78
2023/08/06 09:31:42;;;;;;;0.70;0.60;;;19.30;83.30;;;18.16;67.51;96947.56;4943678;29;21143;-74
2023/08/06 09:34:16;;;;;;;0.90;0.57;;;18.80;83.10;;;18.07;67.59;96931.00;4942489;29;20580;-78
2023/08/06 09:36:48;;;;;;;0.70;0.60;;;18.60;83.10;;;18.06;68.20;96917.63;4940645;29;20457;-75
2023/08/06 09:39:17;;;;;;;0.77;0.40;;;18.50;83.40;;;18.85;65.87;96943.66;4946740;29;20491;-71
2023/08/06 09:41:44;;;;;;;1.07;0.30;;;19.00;82.90;;;18.96;63.95;96926.00;4943796;29;20499;-72
2023/08/06 09:44:18;;;;;;;3.53;0.50;;;19.30;81.70;;;18.81;64.31;96932.53;4938897;28;21134;-74
2023/08/06 09:46:50;;;;;;;0.70;0.60;;;19.40;81.40;;;18.18;64.96;96911.75;4943732;29;20643;-78
2023/08/06 09:49:20;;;;;;;0.80;0.50;;;19.00;80.90;;;17.98;67.47;96928.06;4937624;29;20473;-75
2023/08/06 09:51:50;;;;;;;0.80;0.60;;;18.70;82.40;;;18.17;68.99;96951.13;4941712;29;20478;-80
2023/08/06 09:54:26;;;;;;;0.40;0.30;;;18.50;83.50;;;18.58;67.71;96930.66;4946605;29;20474;-82
2023/08/06 09:56:55;;;;;;;1.13;0.40;;;18.90;83.50;;;18.19;68.43;96938.75;4946095;29;20457;-81
2023/08/06 09:59:25;;;;;;;0.60;0.43;;;18.60;83.10;;;18.20;67.99;96939.59;4949079;28;20810;-85
2023/08/06 10:01:58;;;;;;;0.50;0.43;;;18.60;83.10;;;17.93;69.17;96898.06;4950847;28;20479;-84
2023/08/06 10:04:26;;;;;;;1.33;0.53;;;18.60;83.70;;;18.29;66.87;96950.69;4939154;29;20531;-81
2023/08/06 10:06:55;;;;;;;0.70;0.50;;;18.70;82.40;;;18.41;66.30;96935.50;4948512;29;21032;-83
2023/08/06 10:09:25;;;;;;;1.07;0.50;;;18.70;82.30;;;18.08;66.46;96935.34;4929999;29;20461;-82
2023/08/06 10:11:53;;;;;;;1.13;0.40;;;18.50;81.70;;;17.73;67.83;96941.97;4942816;29;20449;-85
2023/08/06 10:14:26;;;;;;;0.70;0.50;;;18.20;82.30;;;17.66;67.49;96906.81;4945993;29;20960;-84
2023/08/06 10:16:53;;;;;;;0.50;0.40;;;18.20;82.30;;;18.05;66.69;96892.22;4947093;28;20465;-81
2023/08/06 10:19:23;;;;;;;0.50;0.30;;;18.40;82.80;;;18.58;65.34;96926.00;4955656;29;20509;-82
2023/08/06 10:22:13;;;;;;;0.70;0.60;;;18.80;81.80;;;19.00;62.66;96919.94;4965101;28;20539;-82
2023/08/06 10:24:54;;;;;;;0.90;0.43;;;19.20;80.50;;;19.58;61.35;96926.94;4963237;28;20527;-85